sensor_id;sensor_type;location;lat;lon;timestamp;P1;durP1;ratioP1;P2;durP2;ratioP2
18796;SDS011;9526;52.612;13.300;2023-02-01T00:01:57;28.63;;;4.53;;
18796;SDS011;9526;52.612;13.300;2023-02-01T00:04:21;24.20;;;3.47;;
18796;SDS011;9526;52.612;13.300;2023-02-01T00:06:45;21.27;;;3.37;;
18796;SDS011;9526;52.612;13.300;2023-02-01T00:09:09;40.97;;;4.20;;
18796;SDS011;9526;52.612;13.300;2023-02-01T00:11:33;18.10;;;2.83;;
18796;SDS011;9526;52.612;13.300;2023-02-01T00:13:58;31.17;;;3.73;;
18796;SDS011;9526;52.612;13.300;2023-02-01T00:16:22;30.50;;;3.53;;
18796;SDS011;9526;52.612;13.300;2023-02-01T00:18:49;31.07;;;4.40;;
18796;SDS011;9526;52.612;13.300;2023-02-01T00:21:18;22.87;;;3.07;;
18796;SDS011;9526;52.612;13.300;2023-02-01T00:23:43;22.97;;;4.30;;
18796;SDS011;9526;52.612;13.300;2023-02-01T00:26:07;27.70;;;3.87;;
18796;SDS011;9526;52.612;13.300;2023-02-01T00:28:37;19.27;;;2.93;;
18796;SDS011;9526;52.612;13.300;2023-02-01T00:31:02;28.13;;;4.00;;
18796;SDS011;9526;52.612;13.300;2023-02-01T00:33:27;28.43;;;3.50;;
18796;SDS011;9526;52.612;13.300;2023-02-01T00:35:55;20.40;;;3.33;;
18796;SDS011;9526;52.612;13.300;2023-02-01T00:38:20;30.43;;;3.93;;
18796;SDS011;9526;52.612;13.300;2023-02-01T00:40:45;15.23;;;3.00;;
18796;SDS011;9526;52.612;13.300;2023-02-01T00:43:08;17.70;;;3.00;;
18796;SDS011;9526;52.612;13.300;2023-02-01T00:45:32;19.73;;;3.30;;
18796;SDS011;9526;52.612;13.300;2023-02-01T00:47:57;23.77;;;3.63;;
18796;SDS011;9526;52.612;13.300;2023-02-01T00:50:20;20.37;;;2.73;;
18796;SDS011;9526;52.612;13.300;2023-02-01T00:52:45;15.00;;;3.17;;
18796;SDS011;9526;52.612;13.300;2023-02-01T00:55:09;18.33;;;2.43;;
18796;SDS011;9526;52.612;13.300;2023-02-01T00:57:33;13.03;;;1.90;;
18796;SDS011;9526;52.612;13.300;2023-02-01T00:59:56;19.33;;;2.30;;
18796;SDS011;9526;52.612;13.300;2023-02-01T01:02:20;18.63;;;2.50;;
18796;SDS011;9526;52.612;13.300;2023-02-01T01:04:45;18.03;;;2.37;;
18796;SDS011;9526;52.612;13.300;2023-02-01T01:07:09;18.47;;;2.27;;
18796;SDS011;9526;52.612;13.300;2023-02-01T01:09:34;8.60;;;1.77;;
18796;SDS011;9526;52.612;13.300;2023-02-01T01:11:57;17.43;;;2.33;;
18796;SDS011;9526;52.612;13.300;2023-02-01T01:14:25;16.67;;;2.47;;
18796;SDS011;9526;52.612;13.300;2023-02-01T01:16:48;14.87;;;1.97;;
18796;SDS011;9526;52.612;13.300;2023-02-01T01:19:12;15.43;;;3.07;;
18796;SDS011;9526;52.612;13.300;2023-02-01T01:21:37;21.90;;;2.70;;
18796;SDS011;9526;52.612;13.300;2023-02-01T01:24:01;12.43;;;2.10;;
18796;SDS011;9526;52.612;13.300;2023-02-01T01:26:25;21.13;;;2.60;;
18796;SDS011;9526;52.612;13.300;2023-02-01T01:28:51;21.10;;;3.40;;
18796;SDS011;9526;52.612;13.300;2023-02-01T01:31:19;19.43;;;2.73;;
18796;SDS011;9526;52.612;13.300;2023-02-01T01:33:43;23.27;;;2.70;;
18796;SDS011;9526;52.612;13.300;2023-02-01T01:36:10;15.87;;;2.53;;
18796;SDS011;9526;52.612;13.300;2023-02-01T01:38:36;19.77;;;2.70;;
18796;SDS011;9526;52.612;13.300;2023-02-01T01:41:00;16.47;;;3.00;;
18796;SDS011;9526;52.612;13.300;2023-02-01T01:43:24;17.57;;;3.53;;
18796;SDS011;9526;52.612;13.300;2023-02-01T01:45:49;15.37;;;2.83;;
18796;SDS011;9526;52.612;13.300;2023-02-01T01:48:14;24.80;;;3.13;;
18796;SDS011;9526;52.612;13.300;2023-02-01T01:50:44;23.47;;;3.67;;
18796;SDS011;9526;52.612;13.300;2023-02-01T01:53:12;20.43;;;3.03;;
18796;SDS011;9526;52.612;13.300;2023-02-01T01:55:43;21.93;;;3.10;;
18796;SDS011;9526;52.612;13.300;2023-02-01T01:58:09;21.33;;;3.83;;
18796;SDS011;9526;52.612;13.300;2023-02-01T02:00:38;25.80;;;4.23;;
18796;SDS011;9526;52.612;13.300;2023-02-01T02:03:03;22.77;;;3.30;;
18796;SDS011;9526;52.612;13.300;2023-02-01T02:05:36;19.63;;;3.17;;
18796;SDS011;9526;52.612;13.300;2023-02-01T02:08:02;24.83;;;3.50;;
18796;SDS011;9526;52.612;13.300;2023-02-01T02:10:26;17.73;;;3.50;;
18796;SDS011;9526;52.612;13.300;2023-02-01T02:13:06;14.93;;;1.90;;
18796;SDS011;9526;52.612;13.300;2023-02-01T02:15:29;23.90;;;3.60;;
18796;SDS011;9526;52.612;13.300;2023-02-01T02:17:55;32.93;;;4.13;;
18796;SDS011;9526;52.612;13.300;2023-02-01T02:23:47;25.07;;;3.77;;
18796;SDS011;9526;52.612;13.300;2023-02-01T02:26:46;19.00;;;2.30;;
18796;SDS011;9526;52.612;13.300;2023-02-01T02:29:46;20.63;;;2.90;;
18796;SDS011;9526;52.612;13.300;2023-02-01T02:35:59;24.43;;;3.80;;
18796;SDS011;9526;52.612;13.300;2023-02-01T02:38:31;24.50;;;3.27;;
18796;SDS011;9526;52.612;13.300;2023-02-01T02:41:05;20.13;;;2.60;;
18796;SDS011;9526;52.612;13.300;2023-02-01T02:43:57;11.77;;;2.37;;
18796;SDS011;9526;52.612;13.300;2023-02-01T02:46:40;20.40;;;3.20;;
18796;SDS011;9526;52.612;13.300;2023-02-01T02:49:33;22.07;;;3.20;;
18796;SDS011;9526;52.612;13.300;2023-02-01T02:52:03;18.83;;;2.90;;
18796;SDS011;9526;52.612;13.300;2023-02-01T02:55:04;16.67;;;2.93;;
18796;SDS011;9526;52.612;13.300;2023-02-01T02:57:32;28.40;;;3.53;;
18796;SDS011;9526;52.612;13.300;2023-02-01T03:00:19;18.73;;;3.03;;
18796;SDS011;9526;52.612;13.300;2023-02-01T03:03:03;17.37;;;3.03;;
18796;SDS011;9526;52.612;13.300;2023-02-01T03:05:47;22.83;;;2.87;;
18796;SDS011;9526;52.612;13.300;2023-02-01T03:08:14;29.23;;;3.57;;
18796;SDS011;9526;52.612;13.300;2023-02-01T03:10:47;30.77;;;4.13;;
18796;SDS011;9526;52.612;13.300;2023-02-01T03:13:19;18.57;;;3.33;;
18796;SDS011;9526;52.612;13.300;2023-02-01T03:15:53;24.87;;;3.53;;
18796;SDS011;9526;52.612;13.300;2023-02-01T03:18:26;25.93;;;3.07;;
18796;SDS011;9526;52.612;13.300;2023-02-01T03:20:57;22.03;;;2.87;;
18796;SDS011;9526;52.612;13.300;2023-02-01T03:23:26;26.67;;;3.57;;
18796;SDS011;9526;52.612;13.300;2023-02-01T03:25:55;28.47;;;3.60;;
18796;SDS011;9526;52.612;13.300;2023-02-01T03:28:23;22.07;;;3.03;;
18796;SDS011;9526;52.612;13.300;2023-02-01T03:30:51;20.40;;;3.50;;
18796;SDS011;9526;52.612;13.300;2023-02-01T03:33:15;26.17;;;3.20;;
18796;SDS011;9526;52.612;13.300;2023-02-01T03:35:46;29.77;;;3.97;;
18796;SDS011;9526;52.612;13.300;2023-02-01T03:38:23;18.97;;;3.10;;
18796;SDS011;9526;52.612;13.300;2023-02-01T03:40:51;24.80;;;3.67;;
18796;SDS011;9526;52.612;13.300;2023-02-01T03:43:20;23.77;;;3.53;;
18796;SDS011;9526;52.612;13.300;2023-02-01T03:45:47;33.30;;;3.73;;
18796;SDS011;9526;52.612;13.300;2023-02-01T03:48:16;20.60;;;2.33;;
18796;SDS011;9526;52.612;13.300;2023-02-01T03:50:43;26.50;;;3.50;;
18796;SDS011;9526;52.612;13.300;2023-02-01T03:53:13;26.20;;;3.57;;
18796;SDS011;9526;52.612;13.300;2023-02-01T03:55:40;22.23;;;3.80;;
18796;SDS011;9526;52.612;13.300;2023-02-01T03:58:06;28.60;;;4.73;;
18796;SDS011;9526;52.612;13.300;2023-02-01T04:00:33;19.53;;;3.43;;
18796;SDS011;9526;52.612;13.300;2023-02-01T04:02:57;22.40;;;3.43;;
18796;SDS011;9526;52.612;13.300;2023-02-01T04:05:21;29.83;;;3.87;;
18796;SDS011;9526;52.612;13.300;2023-02-01T04:07:52;13.57;;;2.23;;
18796;SDS011;9526;52.612;13.300;2023-02-01T04:10:18;27.07;;;3.80;;
18796;SDS011;9526;52.612;13.300;2023-02-01T04:12:42;22.50;;;3.83;;
18796;SDS011;9526;52.612;13.300;2023-02-01T04:15:06;26.47;;;4.03;;
18796;SDS011;9526;52.612;13.300;2023-02-01T04:17:31;24.53;;;3.67;;
18796;SDS011;9526;52.612;13.300;2023-02-01T04:19:54;32.03;;;4.07;;
18796;SDS011;9526;52.612;13.300;2023-02-01T04:22:18;33.60;;;4.40;;
18796;SDS011;9526;52.612;13.300;2023-02-01T04:24:42;27.43;;;3.90;;
18796;SDS011;9526;52.612;13.300;2023-02-01T04:27:07;26.63;;;3.50;;
18796;SDS011;9526;52.612;13.300;2023-02-01T04:29:30;29.80;;;3.67;;
18796;SDS011;9526;52.612;13.300;2023-02-01T04:31:54;25.60;;;4.37;;
18796;SDS011;9526;52.612;13.300;2023-02-01T04:34:18;29.97;;;4.10;;
18796;SDS011;9526;52.612;13.300;2023-02-01T04:36:43;28.43;;;4.07;;
18796;SDS011;9526;52.612;13.300;2023-02-01T04:39:08;22.27;;;3.67;;
18796;SDS011;9526;52.612;13.300;2023-02-01T04:41:32;25.80;;;3.93;;
18796;SDS011;9526;52.612;13.300;2023-02-01T04:43:57;23.63;;;4.10;;
18796;SDS011;9526;52.612;13.300;2023-02-01T04:46:20;11.90;;;2.63;;
18796;SDS011;9526;52.612;13.300;2023-02-01T04:48:44;24.00;;;3.87;;
18796;SDS011;9526;52.612;13.300;2023-02-01T04:51:08;26.23;;;4.20;;
18796;SDS011;9526;52.612;13.300;2023-02-01T04:53:33;30.80;;;4.30;;
18796;SDS011;9526;52.612;13.300;2023-02-01T04:55:57;21.30;;;3.50;;
18796;SDS011;9526;52.612;13.300;2023-02-01T04:58:20;25.97;;;3.93;;
18796;SDS011;9526;52.612;13.300;2023-02-01T05:00:46;23.70;;;4.03;;
18796;SDS011;9526;52.612;13.300;2023-02-01T05:03:11;26.30;;;4.07;;
18796;SDS011;9526;52.612;13.300;2023-02-01T05:05:34;25.50;;;3.60;;
18796;SDS011;9526;52.612;13.300;2023-02-01T05:07:58;27.47;;;3.70;;
18796;SDS011;9526;52.612;13.300;2023-02-01T05:10:22;22.00;;;3.93;;
18796;SDS011;9526;52.612;13.300;2023-02-01T05:12:46;31.57;;;3.90;;
18796;SDS011;9526;52.612;13.300;2023-02-01T05:15:27;27.73;;;4.67;;
18796;SDS011;9526;52.612;13.300;2023-02-01T05:17:52;28.63;;;3.77;;
18796;SDS011;9526;52.612;13.300;2023-02-01T05:20:16;33.63;;;4.07;;
18796;SDS011;9526;52.612;13.300;2023-02-01T05:22:40;31.63;;;3.27;;
18796;SDS011;9526;52.612;13.300;2023-02-01T05:25:05;31.50;;;4.30;;
18796;SDS011;9526;52.612;13.300;2023-02-01T05:27:29;25.93;;;3.47;;
18796;SDS011;9526;52.612;13.300;2023-02-01T05:29:53;27.00;;;3.57;;
18796;SDS011;9526;52.612;13.300;2023-02-01T05:32:17;27.13;;;4.43;;
18796;SDS011;9526;52.612;13.300;2023-02-01T05:34:44;20.67;;;3.17;;
18796;SDS011;9526;52.612;13.300;2023-02-01T05:37:08;25.23;;;4.57;;
18796;SDS011;9526;52.612;13.300;2023-02-01T05:39:32;23.77;;;3.60;;
18796;SDS011;9526;52.612;13.300;2023-02-01T05:41:56;21.33;;;3.50;;
18796;SDS011;9526;52.612;13.300;2023-02-01T05:44:20;26.83;;;4.00;;
18796;SDS011;9526;52.612;13.300;2023-02-01T05:46:43;22.37;;;3.90;;
18796;SDS011;9526;52.612;13.300;2023-02-01T05:49:10;29.60;;;3.47;;
18796;SDS011;9526;52.612;13.300;2023-02-01T05:51:35;22.63;;;3.90;;
18796;SDS011;9526;52.612;13.300;2023-02-01T05:53:59;20.77;;;3.30;;
18796;SDS011;9526;52.612;13.300;2023-02-01T05:56:23;23.83;;;3.83;;
18796;SDS011;9526;52.612;13.300;2023-02-01T05:58:46;24.37;;;4.20;;
18796;SDS011;9526;52.612;13.300;2023-02-01T06:01:10;30.90;;;4.47;;
18796;SDS011;9526;52.612;13.300;2023-02-01T06:03:34;30.97;;;4.20;;
18796;SDS011;9526;52.612;13.300;2023-02-01T06:05:58;28.67;;;4.67;;
18796;SDS011;9526;52.612;13.300;2023-02-01T06:08:24;32.73;;;3.87;;
18796;SDS011;9526;52.612;13.300;2023-02-01T06:10:48;19.40;;;3.50;;
18796;SDS011;9526;52.612;13.300;2023-02-01T06:13:11;23.63;;;4.43;;
18796;SDS011;9526;52.612;13.300;2023-02-01T06:15:35;27.20;;;4.20;;
18796;SDS011;9526;52.612;13.300;2023-02-01T06:18:00;26.60;;;3.97;;
18796;SDS011;9526;52.612;13.300;2023-02-01T06:20:23;29.57;;;4.53;;
18796;SDS011;9526;52.612;13.300;2023-02-01T06:22:47;22.70;;;4.07;;
18796;SDS011;9526;52.612;13.300;2023-02-01T06:25:12;27.90;;;3.60;;
18796;SDS011;9526;52.612;13.300;2023-02-01T06:27:38;23.80;;;3.33;;
18796;SDS011;9526;52.612;13.300;2023-02-01T06:30:02;28.67;;;3.83;;
18796;SDS011;9526;52.612;13.300;2023-02-01T06:32:27;27.10;;;4.10;;
18796;SDS011;9526;52.612;13.300;2023-02-01T06:34:51;31.30;;;4.20;;
18796;SDS011;9526;52.612;13.300;2023-02-01T06:37:15;27.33;;;3.97;;
18796;SDS011;9526;52.612;13.300;2023-02-01T06:39:38;27.40;;;4.50;;
18796;SDS011;9526;52.612;13.300;2023-02-01T06:42:03;27.57;;;4.30;;
18796;SDS011;9526;52.612;13.300;2023-02-01T06:44:27;23.20;;;4.40;;
18796;SDS011;9526;52.612;13.300;2023-02-01T06:46:51;29.03;;;4.40;;
18796;SDS011;9526;52.612;13.300;2023-02-01T06:49:16;25.03;;;3.83;;
18796;SDS011;9526;52.612;13.300;2023-02-01T06:51:41;21.27;;;4.20;;
18796;SDS011;9526;52.612;13.300;2023-02-01T06:54:04;22.67;;;4.17;;
18796;SDS011;9526;52.612;13.300;2023-02-01T06:56:28;29.90;;;4.73;;
18796;SDS011;9526;52.612;13.300;2023-02-01T06:58:54;24.33;;;4.27;;
18796;SDS011;9526;52.612;13.300;2023-02-01T07:01:18;17.53;;;3.30;;
18796;SDS011;9526;52.612;13.300;2023-02-01T07:03:42;21.30;;;4.83;;
18796;SDS011;9526;52.612;13.300;2023-02-01T07:06:09;15.97;;;2.80;;
18796;SDS011;9526;52.612;13.300;2023-02-01T07:08:34;30.43;;;4.20;;
18796;SDS011;9526;52.612;13.300;2023-02-01T07:11:01;24.57;;;3.83;;
18796;SDS011;9526;52.612;13.300;2023-02-01T07:13:25;27.63;;;3.97;;
18796;SDS011;9526;52.612;13.300;2023-02-01T07:15:50;22.90;;;4.23;;
18796;SDS011;9526;52.612;13.300;2023-02-01T07:18:14;22.20;;;3.50;;
18796;SDS011;9526;52.612;13.300;2023-02-01T07:20:37;31.07;;;4.77;;
18796;SDS011;9526;52.612;13.300;2023-02-01T07:23:01;25.23;;;4.03;;
18796;SDS011;9526;52.612;13.300;2023-02-01T07:25:25;21.23;;;4.30;;
18796;SDS011;9526;52.612;13.300;2023-02-01T07:27:48;20.73;;;3.87;;
18796;SDS011;9526;52.612;13.300;2023-02-01T07:30:12;22.17;;;3.77;;
18796;SDS011;9526;52.612;13.300;2023-02-01T07:32:37;22.67;;;4.30;;
18796;SDS011;9526;52.612;13.300;2023-02-01T07:35:01;25.50;;;4.20;;
18796;SDS011;9526;52.612;13.300;2023-02-01T07:37:25;26.27;;;4.67;;
18796;SDS011;9526;52.612;13.300;2023-02-01T07:39:49;16.90;;;3.50;;
18796;SDS011;9526;52.612;13.300;2023-02-01T07:42:12;23.53;;;4.00;;
18796;SDS011;9526;52.612;13.300;2023-02-01T07:44:36;14.63;;;3.80;;
18796;SDS011;9526;52.612;13.300;2023-02-01T07:46:59;18.30;;;3.47;;
18796;SDS011;9526;52.612;13.300;2023-02-01T07:49:25;26.03;;;4.20;;
18796;SDS011;9526;52.612;13.300;2023-02-01T07:51:48;23.33;;;4.03;;
18796;SDS011;9526;52.612;13.300;2023-02-01T07:54:12;17.97;;;3.70;;
18796;SDS011;9526;52.612;13.300;2023-02-01T07:56:36;19.83;;;4.10;;
18796;SDS011;9526;52.612;13.300;2023-02-01T07:58:59;23.10;;;4.37;;
18796;SDS011;9526;52.612;13.300;2023-02-01T08:01:24;16.97;;;3.90;;
18796;SDS011;9526;52.612;13.300;2023-02-01T08:03:48;22.07;;;3.50;;
18796;SDS011;9526;52.612;13.300;2023-02-01T08:06:16;16.70;;;3.50;;
18796;SDS011;9526;52.612;13.300;2023-02-01T08:08:41;20.47;;;3.87;;
18796;SDS011;9526;52.612;13.300;2023-02-01T08:11:06;19.97;;;4.13;;
18796;SDS011;9526;52.612;13.300;2023-02-01T08:13:31;17.40;;;4.00;;
18796;SDS011;9526;52.612;13.300;2023-02-01T08:15:57;16.97;;;4.17;;
18796;SDS011;9526;52.612;13.300;2023-02-01T08:18:21;13.60;;;3.17;;
18796;SDS011;9526;52.612;13.300;2023-02-01T08:20:45;26.30;;;3.60;;
18796;SDS011;9526;52.612;13.300;2023-02-01T08:23:10;14.83;;;3.30;;
18796;SDS011;9526;52.612;13.300;2023-02-01T08:25:34;13.57;;;3.00;;
18796;SDS011;9526;52.612;13.300;2023-02-01T08:27:59;15.90;;;3.10;;
18796;SDS011;9526;52.612;13.300;2023-02-01T08:30:22;7.23;;;1.73;;
18796;SDS011;9526;52.612;13.300;2023-02-01T08:32:46;15.10;;;3.47;;
18796;SDS011;9526;52.612;13.300;2023-02-01T08:35:10;13.67;;;2.87;;
18796;SDS011;9526;52.612;13.300;2023-02-01T08:37:34;9.73;;;2.80;;
18796;SDS011;9526;52.612;13.300;2023-02-01T08:39:59;21.37;;;3.70;;
18796;SDS011;9526;52.612;13.300;2023-02-01T08:42:23;13.23;;;3.10;;
18796;SDS011;9526;52.612;13.300;2023-02-01T08:45:04;11.77;;;2.87;;
18796;SDS011;9526;52.612;13.300;2023-02-01T08:47:30;7.80;;;2.90;;
18796;SDS011;9526;52.612;13.300;2023-02-01T08:49:54;12.10;;;3.00;;
18796;SDS011;9526;52.612;13.300;2023-02-01T08:52:17;11.97;;;2.63;;
18796;SDS011;9526;52.612;13.300;2023-02-01T08:54:41;13.77;;;3.37;;
18796;SDS011;9526;52.612;13.300;2023-02-01T08:57:06;11.87;;;3.10;;
18796;SDS011;9526;52.612;13.300;2023-02-01T08:59:30;10.70;;;2.67;;
18796;SDS011;9526;52.612;13.300;2023-02-01T09:01:54;12.53;;;3.00;;
18796;SDS011;9526;52.612;13.300;2023-02-01T09:04:18;10.90;;;2.57;;
18796;SDS011;9526;52.612;13.300;2023-02-01T09:06:42;9.57;;;3.00;;
18796;SDS011;9526;52.612;13.300;2023-02-01T09:09:05;18.63;;;3.03;;
18796;SDS011;9526;52.612;13.300;2023-02-01T09:11:29;9.87;;;2.67;;
18796;SDS011;9526;52.612;13.300;2023-02-01T09:13:55;11.57;;;2.43;;
18796;SDS011;9526;52.612;13.300;2023-02-01T09:16:19;8.00;;;2.70;;
18796;SDS011;9526;52.612;13.300;2023-02-01T09:18:43;6.17;;;2.07;;
18796;SDS011;9526;52.612;13.300;2023-02-01T09:21:27;10.00;;;2.33;;
18796;SDS011;9526;52.612;13.300;2023-02-01T09:23:51;9.67;;;2.30;;
18796;SDS011;9526;52.612;13.300;2023-02-01T09:26:15;5.30;;;1.87;;
18796;SDS011;9526;52.612;13.300;2023-02-01T09:28:43;12.47;;;2.17;;
18796;SDS011;9526;52.612;13.300;2023-02-01T09:31:08;5.57;;;1.43;;
18796;SDS011;9526;52.612;13.300;2023-02-01T09:33:32;8.13;;;1.97;;
18796;SDS011;9526;52.612;13.300;2023-02-01T09:35:56;10.03;;;1.80;;
18796;SDS011;9526;52.612;13.300;2023-02-01T09:38:20;5.63;;;1.43;;
18796;SDS011;9526;52.612;13.300;2023-02-01T09:40:45;2.43;;;1.40;;
18796;SDS011;9526;52.612;13.300;2023-02-01T09:43:12;7.10;;;1.50;;
18796;SDS011;9526;52.612;13.300;2023-02-01T09:45:49;6.07;;;1.20;;
18796;SDS011;9526;52.612;13.300;2023-02-01T09:48:21;4.27;;;1.43;;
18796;SDS011;9526;52.612;13.300;2023-02-01T09:50:53;3.77;;;1.20;;
18796;SDS011;9526;52.612;13.300;2023-02-01T09:53:21;3.40;;;1.20;;
18796;SDS011;9526;52.612;13.300;2023-02-01T09:55:51;4.77;;;1.23;;
18796;SDS011;9526;52.612;13.300;2023-02-01T09:58:19;2.83;;;1.10;;
18796;SDS011;9526;52.612;13.300;2023-02-01T10:00:51;8.40;;;1.90;;
18796;SDS011;9526;52.612;13.300;2023-02-01T10:03:16;5.33;;;1.10;;
18796;SDS011;9526;52.612;13.300;2023-02-01T10:05:48;6.90;;;1.20;;
18796;SDS011;9526;52.612;13.300;2023-02-01T10:08:54;6.73;;;1.30;;
18796;SDS011;9526;52.612;13.300;2023-02-01T10:11:32;4.43;;;1.43;;
18796;SDS011;9526;52.612;13.300;2023-02-01T10:14:12;4.93;;;1.00;;
18796;SDS011;9526;52.612;13.300;2023-02-01T10:16:54;4.07;;;1.20;;
18796;SDS011;9526;52.612;13.300;2023-02-01T10:19:28;7.97;;;1.33;;
18796;SDS011;9526;52.612;13.300;2023-02-01T10:22:05;9.67;;;1.70;;
18796;SDS011;9526;52.612;13.300;2023-02-01T10:24:41;5.80;;;1.67;;
18796;SDS011;9526;52.612;13.300;2023-02-01T10:27:13;8.77;;;2.10;;
18796;SDS011;9526;52.612;13.300;2023-02-01T10:29:41;6.67;;;1.67;;
18796;SDS011;9526;52.612;13.300;2023-02-01T10:32:11;7.43;;;1.60;;
18796;SDS011;9526;52.612;13.300;2023-02-01T10:34:38;7.10;;;2.30;;
18796;SDS011;9526;52.612;13.300;2023-02-01T10:37:08;7.87;;;2.40;;
18796;SDS011;9526;52.612;13.300;2023-02-01T10:39:43;9.27;;;1.97;;
18796;SDS011;9526;52.612;13.300;2023-02-01T10:42:07;9.67;;;2.00;;
18796;SDS011;9526;52.612;13.300;2023-02-01T10:44:32;6.17;;;1.53;;
18796;SDS011;9526;52.612;13.300;2023-02-01T10:47:08;9.40;;;1.80;;
18796;SDS011;9526;52.612;13.300;2023-02-01T10:49:33;9.53;;;1.73;;
18796;SDS011;9526;52.612;13.300;2023-02-01T10:52:07;10.13;;;1.63;;
18796;SDS011;9526;52.612;13.300;2023-02-01T10:54:39;7.40;;;1.70;;
18796;SDS011;9526;52.612;13.300;2023-02-01T10:57:04;7.63;;;1.60;;
18796;SDS011;9526;52.612;13.300;2023-02-01T10:59:31;10.57;;;1.70;;
18796;SDS011;9526;52.612;13.300;2023-02-01T11:01:58;10.33;;;1.73;;
18796;SDS011;9526;52.612;13.300;2023-02-01T11:04:24;6.17;;;1.67;;
18796;SDS011;9526;52.612;13.300;2023-02-01T11:06:51;7.87;;;1.80;;
18796;SDS011;9526;52.612;13.300;2023-02-01T11:09:30;6.97;;;1.90;;
18796;SDS011;9526;52.612;13.300;2023-02-01T11:11:55;9.27;;;2.37;;
18796;SDS011;9526;52.612;13.300;2023-02-01T11:14:25;11.07;;;2.10;;
18796;SDS011;9526;52.612;13.300;2023-02-01T11:16:57;10.80;;;1.80;;
18796;SDS011;9526;52.612;13.300;2023-02-01T11:19:22;9.17;;;2.13;;
18796;SDS011;9526;52.612;13.300;2023-02-01T11:21:48;5.00;;;1.20;;
18796;SDS011;9526;52.612;13.300;2023-02-01T11:24:16;20.73;;;2.40;;
18796;SDS011;9526;52.612;13.300;2023-02-01T11:26:47;13.33;;;2.30;;
18796;SDS011;9526;52.612;13.300;2023-02-01T11:29:11;10.27;;;2.07;;
18796;SDS011;9526;52.612;13.300;2023-02-01T11:31:39;16.40;;;3.43;;
18796;SDS011;9526;52.612;13.300;2023-02-01T11:34:05;12.53;;;2.30;;
18796;SDS011;9526;52.612;13.300;2023-02-01T11:36:32;10.70;;;2.27;;
18796;SDS011;9526;52.612;13.300;2023-02-01T11:39:10;7.87;;;1.90;;
18796;SDS011;9526;52.612;13.300;2023-02-01T11:41:44;6.80;;;2.13;;
18796;SDS011;9526;52.612;13.300;2023-02-01T11:44:26;18.20;;;2.97;;
18796;SDS011;9526;52.612;13.300;2023-02-01T11:46:55;14.03;;;2.33;;
18796;SDS011;9526;52.612;13.300;2023-02-01T11:49:40;13.23;;;2.33;;
18796;SDS011;9526;52.612;13.300;2023-02-01T11:52:07;12.75;;;2.10;;
18796;SDS011;9526;52.612;13.300;2023-02-01T11:54:45;14.30;;;3.07;;
18796;SDS011;9526;52.612;13.300;2023-02-01T11:57:29;16.23;;;2.73;;
18796;SDS011;9526;52.612;13.300;2023-02-01T12:00:26;6.43;;;1.37;;
18796;SDS011;9526;52.612;13.300;2023-02-01T12:03:28;8.73;;;2.13;;
18796;SDS011;9526;52.612;13.300;2023-02-01T12:06:29;13.00;;;2.80;;
18796;SDS011;9526;52.612;13.300;2023-02-01T12:09:17;11.87;;;2.10;;
18796;SDS011;9526;52.612;13.300;2023-02-01T12:12:12;11.50;;;2.37;;
18796;SDS011;9526;52.612;13.300;2023-02-01T12:14:49;6.60;;;1.77;;
18796;SDS011;9526;52.612;13.300;2023-02-01T12:17:36;11.57;;;2.77;;
18796;SDS011;9526;52.612;13.300;2023-02-01T12:20:21;10.70;;;2.33;;
18796;SDS011;9526;52.612;13.300;2023-02-01T12:23:07;9.83;;;2.20;;
18796;SDS011;9526;52.612;13.300;2023-02-01T12:25:52;9.33;;;1.90;;
18796;SDS011;9526;52.612;13.300;2023-02-01T12:31:45;13.83;;;2.87;;
18796;SDS011;9526;52.612;13.300;2023-02-01T12:34:30;8.17;;;1.90;;
18796;SDS011;9526;52.612;13.300;2023-02-01T12:37:20;11.00;;;1.93;;
18796;SDS011;9526;52.612;13.300;2023-02-01T12:40:04;9.10;;;2.23;;
18796;SDS011;9526;52.612;13.300;2023-02-01T12:42:53;10.40;;;2.20;;
18796;SDS011;9526;52.612;13.300;2023-02-01T12:45:25;14.27;;;2.90;;
18796;SDS011;9526;52.612;13.300;2023-02-01T12:47:56;7.30;;;2.17;;
18796;SDS011;9526;52.612;13.300;2023-02-01T12:50:26;10.73;;;2.07;;
18796;SDS011;9526;52.612;13.300;2023-02-01T12:52:56;14.50;;;2.30;;
18796;SDS011;9526;52.612;13.300;2023-02-01T12:55:32;8.50;;;2.30;;
18796;SDS011;9526;52.612;13.300;2023-02-01T12:58:05;11.57;;;2.13;;
18796;SDS011;9526;52.612;13.300;2023-02-01T13:00:36;13.33;;;2.93;;
18796;SDS011;9526;52.612;13.300;2023-02-01T13:03:05;6.50;;;1.47;;
18796;SDS011;9526;52.612;13.300;2023-02-01T13:05:39;7.73;;;1.30;;
18796;SDS011;9526;52.612;13.300;2023-02-01T13:08:12;3.43;;;0.80;;
18796;SDS011;9526;52.612;13.300;2023-02-01T13:10:40;3.67;;;0.70;;
18796;SDS011;9526;52.612;13.300;2023-02-01T13:13:11;2.77;;;0.83;;
18796;SDS011;9526;52.612;13.300;2023-02-01T13:15:43;4.43;;;0.80;;
18796;SDS011;9526;52.612;13.300;2023-02-01T13:18:13;3.30;;;1.20;;
18796;SDS011;9526;52.612;13.300;2023-02-01T13:20:44;8.83;;;1.70;;
18796;SDS011;9526;52.612;13.300;2023-02-01T13:23:14;11.13;;;1.73;;
18796;SDS011;9526;52.612;13.300;2023-02-01T13:25:48;12.53;;;1.67;;
18796;SDS011;9526;52.612;13.300;2023-02-01T13:28:15;10.73;;;1.70;;
18796;SDS011;9526;52.612;13.300;2023-02-01T13:30:48;11.97;;;1.70;;
18796;SDS011;9526;52.612;13.300;2023-02-01T13:37:52;13.17;;;2.10;;
18796;SDS011;9526;52.612;13.300;2023-02-01T13:40:39;11.50;;;2.10;;
18796;SDS011;9526;52.612;13.300;2023-02-01T13:43:06;9.33;;;2.17;;
18796;SDS011;9526;52.612;13.300;2023-02-01T13:45:35;13.13;;;2.17;;
18796;SDS011;9526;52.612;13.300;2023-02-01T13:48:06;14.13;;;2.57;;
18796;SDS011;9526;52.612;13.300;2023-02-01T13:50:43;18.50;;;3.03;;
18796;SDS011;9526;52.612;13.300;2023-02-01T13:53:16;19.03;;;2.60;;
18796;SDS011;9526;52.612;13.300;2023-02-01T13:55:46;12.00;;;1.73;;
18796;SDS011;9526;52.612;13.300;2023-02-01T13:58:18;13.87;;;2.77;;
18796;SDS011;9526;52.612;13.300;2023-02-01T14:00:45;9.73;;;2.30;;
18796;SDS011;9526;52.612;13.300;2023-02-01T14:03:14;12.03;;;2.07;;
18796;SDS011;9526;52.612;13.300;2023-02-01T14:09:09;11.87;;;2.27;;
18796;SDS011;9526;52.612;13.300;2023-02-01T14:11:42;15.40;;;2.70;;
18796;SDS011;9526;52.612;13.300;2023-02-01T14:23:11;13.37;;;2.63;;
18796;SDS011;9526;52.612;13.300;2023-02-01T14:25:39;11.27;;;2.40;;
18796;SDS011;9526;52.612;13.300;2023-02-01T14:28:09;13.00;;;2.47;;
18796;SDS011;9526;52.612;13.300;2023-02-01T14:30:35;16.43;;;2.47;;
18796;SDS011;9526;52.612;13.300;2023-02-01T14:32:59;15.50;;;3.03;;
18796;SDS011;9526;52.612;13.300;2023-02-01T14:35:41;14.70;;;2.50;;
18796;SDS011;9526;52.612;13.300;2023-02-01T14:38:05;9.10;;;2.40;;
18796;SDS011;9526;52.612;13.300;2023-02-01T14:40:34;15.27;;;2.83;;
18796;SDS011;9526;52.612;13.300;2023-02-01T14:42:57;13.07;;;2.67;;
18796;SDS011;9526;52.612;13.300;2023-02-01T14:51:07;16.40;;;3.63;;
18796;SDS011;9526;52.612;13.300;2023-02-01T14:53:34;18.53;;;4.93;;
18796;SDS011;9526;52.612;13.300;2023-02-01T14:56:04;16.83;;;3.83;;
18796;SDS011;9526;52.612;13.300;2023-02-01T14:58:34;15.17;;;3.67;;
18796;SDS011;9526;52.612;13.300;2023-02-01T15:01:06;17.67;;;3.67;;
18796;SDS011;9526;52.612;13.300;2023-02-01T15:03:43;17.63;;;3.23;;
18796;SDS011;9526;52.612;13.300;2023-02-01T15:06:30;17.77;;;3.27;;
18796;SDS011;9526;52.612;13.300;2023-02-01T15:09:01;14.57;;;3.17;;
18796;SDS011;9526;52.612;13.300;2023-02-01T15:11:29;15.80;;;3.60;;
18796;SDS011;9526;52.612;13.300;2023-02-01T15:13:53;16.10;;;2.70;;
18796;SDS011;9526;52.612;13.300;2023-02-01T15:16:18;9.63;;;2.40;;
18796;SDS011;9526;52.612;13.300;2023-02-01T15:18:43;10.63;;;2.03;;
18796;SDS011;9526;52.612;13.300;2023-02-01T15:21:14;5.70;;;1.43;;